sensor_id;sensor_type;location;lat;lon;timestamp;P1;durP1;ratioP1;P2;durP2;ratioP2
37409;SDS011;23275;48.914;12.566;2022-09-03T00:01:33;2.33;;;0.85;;
37409;SDS011;23275;48.914;12.566;2022-09-03T00:04:09;2.58;;;0.85;;
37409;SDS011;23275;48.914;12.566;2022-09-03T00:06:42;2.60;;;1.00;;
37409;SDS011;23275;48.914;12.566;2022-09-03T00:09:24;3.38;;;0.90;;
37409;SDS011;23275;48.914;12.566;2022-09-03T00:14:48;2.22;;;0.90;;
37409;SDS011;23275;48.914;12.566;2022-09-03T00:17:18;1.63;;;0.80;;
37409;SDS011;23275;48.914;12.566;2022-09-03T00:20:23;2.40;;;1.20;;
37409;SDS011;23275;48.914;12.566;2022-09-03T00:23:04;3.10;;;0.90;;
37409;SDS011;23275;48.914;12.566;2022-09-03T00:25:42;1.80;;;0.77;;
37409;SDS011;23275;48.914;12.566;2022-09-03T00:28:18;1.70;;;0.90;;
37409;SDS011;23275;48.914;12.566;2022-09-03T00:30:50;1.50;;;0.88;;
37409;SDS011;23275;48.914;12.566;2022-09-03T00:33:24;2.53;;;1.05;;
37409;SDS011;23275;48.914;12.566;2022-09-03T00:38:33;2.30;;;1.02;;
37409;SDS011;23275;48.914;12.566;2022-09-03T00:41:06;1.67;;;0.80;;
37409;SDS011;23275;48.914;12.566;2022-09-03T00:52:06;2.38;;;1.10;;
37409;SDS011;23275;48.914;12.566;2022-09-03T00:54:58;2.60;;;0.90;;
37409;SDS011;23275;48.914;12.566;2022-09-03T01:00:27;1.35;;;0.70;;
37409;SDS011;23275;48.914;12.566;2022-09-03T01:03:10;3.25;;;1.25;;
37409;SDS011;23275;48.914;12.566;2022-09-03T01:08:24;2.80;;;1.25;;
37409;SDS011;23275;48.914;12.566;2022-09-03T01:13:49;1.65;;;0.82;;
37409;SDS011;23275;48.914;12.566;2022-09-03T01:21:59;2.97;;;0.90;;
37409;SDS011;23275;48.914;12.566;2022-09-03T01:30:22;2.60;;;1.10;;
37409;SDS011;23275;48.914;12.566;2022-09-03T01:35:56;2.67;;;1.10;;
37409;SDS011;23275;48.914;12.566;2022-09-03T01:50:06;3.50;;;1.02;;
37409;SDS011;23275;48.914;12.566;2022-09-03T01:52:46;1.70;;;1.00;;
37409;SDS011;23275;48.914;12.566;2022-09-03T01:55:55;2.50;;;1.10;;
37409;SDS011;23275;48.914;12.566;2022-09-03T01:58:27;2.67;;;1.30;;
37409;SDS011;23275;48.914;12.566;2022-09-03T02:01:16;3.08;;;1.05;;
37409;SDS011;23275;48.914;12.566;2022-09-03T02:03:50;2.50;;;1.30;;
37409;SDS011;23275;48.914;12.566;2022-09-03T02:06:16;2.13;;;1.15;;
37409;SDS011;23275;48.914;12.566;2022-09-03T02:08:44;2.42;;;1.13;;
37409;SDS011;23275;48.914;12.566;2022-09-03T02:11:10;1.98;;;1.20;;
37409;SDS011;23275;48.914;12.566;2022-09-03T02:16:13;3.08;;;1.73;;
37409;SDS011;23275;48.914;12.566;2022-09-03T02:19:11;4.72;;;1.55;;
37409;SDS011;23275;48.914;12.566;2022-09-03T02:21:39;2.85;;;1.48;;
37409;SDS011;23275;48.914;12.566;2022-09-03T02:24:11;3.20;;;1.42;;
37409;SDS011;23275;48.914;12.566;2022-09-03T02:26:37;4.18;;;1.50;;
37409;SDS011;23275;48.914;12.566;2022-09-03T02:29:02;3.10;;;1.77;;
37409;SDS011;23275;48.914;12.566;2022-09-03T02:31:28;6.03;;;2.70;;
37409;SDS011;23275;48.914;12.566;2022-09-03T02:33:55;2.78;;;1.50;;
37409;SDS011;23275;48.914;12.566;2022-09-03T02:36:31;4.03;;;1.58;;
37409;SDS011;23275;48.914;12.566;2022-09-03T02:39:00;3.10;;;1.20;;
37409;SDS011;23275;48.914;12.566;2022-09-03T02:41:25;3.85;;;1.10;;
37409;SDS011;23275;48.914;12.566;2022-09-03T02:44:01;3.45;;;1.20;;
37409;SDS011;23275;48.914;12.566;2022-09-03T02:46:36;3.90;;;1.17;;
37409;SDS011;23275;48.914;12.566;2022-09-03T02:49:05;3.40;;;1.30;;
37409;SDS011;23275;48.914;12.566;2022-09-03T02:51:38;3.28;;;1.23;;
37409;SDS011;23275;48.914;12.566;2022-09-03T02:54:05;3.25;;;1.15;;
37409;SDS011;23275;48.914;12.566;2022-09-03T02:56:32;1.80;;;0.90;;
37409;SDS011;23275;48.914;12.566;2022-09-03T02:58:58;2.60;;;1.20;;
37409;SDS011;23275;48.914;12.566;2022-09-03T03:01:24;1.92;;;1.00;;
37409;SDS011;23275;48.914;12.566;2022-09-03T03:03:50;3.85;;;1.20;;
37409;SDS011;23275;48.914;12.566;2022-09-03T03:06:16;1.73;;;0.85;;
37409;SDS011;23275;48.914;12.566;2022-09-03T03:08:45;3.75;;;1.00;;
37409;SDS011;23275;48.914;12.566;2022-09-03T03:11:11;2.40;;;1.00;;
37409;SDS011;23275;48.914;12.566;2022-09-03T03:13:42;2.97;;;1.00;;
37409;SDS011;23275;48.914;12.566;2022-09-03T03:16:08;2.55;;;1.15;;
37409;SDS011;23275;48.914;12.566;2022-09-03T03:18:34;4.47;;;1.25;;
37409;SDS011;23275;48.914;12.566;2022-09-03T03:21:03;3.20;;;1.15;;
37409;SDS011;23275;48.914;12.566;2022-09-03T03:23:34;2.03;;;0.85;;
37409;SDS011;23275;48.914;12.566;2022-09-03T03:26:03;3.55;;;1.40;;
37409;SDS011;23275;48.914;12.566;2022-09-03T03:28:30;4.30;;;1.35;;
37409;SDS011;23275;48.914;12.566;2022-09-03T03:31:04;4.13;;;1.00;;
37409;SDS011;23275;48.914;12.566;2022-09-03T03:33:34;1.95;;;1.00;;
37409;SDS011;23275;48.914;12.566;2022-09-03T03:36:04;2.47;;;0.90;;
37409;SDS011;23275;48.914;12.566;2022-09-03T03:38:37;2.30;;;1.05;;
37409;SDS011;23275;48.914;12.566;2022-09-03T03:41:14;2.63;;;1.10;;
37409;SDS011;23275;48.914;12.566;2022-09-03T03:43:45;1.67;;;1.05;;
37409;SDS011;23275;48.914;12.566;2022-09-03T03:46:12;2.00;;;0.90;;
37409;SDS011;23275;48.914;12.566;2022-09-03T03:48:38;1.88;;;1.13;;
37409;SDS011;23275;48.914;12.566;2022-09-03T03:51:05;1.88;;;1.00;;
37409;SDS011;23275;48.914;12.566;2022-09-03T03:53:33;3.47;;;1.23;;
37409;SDS011;23275;48.914;12.566;2022-09-03T03:56:01;2.15;;;1.00;;
37409;SDS011;23275;48.914;12.566;2022-09-03T03:58:29;2.67;;;0.82;;
37409;SDS011;23275;48.914;12.566;2022-09-03T04:01:02;1.77;;;0.95;;
37409;SDS011;23275;48.914;12.566;2022-09-03T04:03:33;4.32;;;1.30;;
37409;SDS011;23275;48.914;12.566;2022-09-03T04:05:59;1.77;;;1.00;;
37409;SDS011;23275;48.914;12.566;2022-09-03T04:08:27;2.13;;;1.00;;
37409;SDS011;23275;48.914;12.566;2022-09-03T04:10:53;2.55;;;1.15;;
37409;SDS011;23275;48.914;12.566;2022-09-03T04:13:23;3.85;;;1.30;;
37409;SDS011;23275;48.914;12.566;2022-09-03T04:15:48;1.92;;;1.10;;
37409;SDS011;23275;48.914;12.566;2022-09-03T04:18:14;1.65;;;1.00;;
37409;SDS011;23275;48.914;12.566;2022-09-03T04:20:39;3.30;;;1.20;;
37409;SDS011;23275;48.914;12.566;2022-09-03T04:23:06;1.95;;;1.02;;
37409;SDS011;23275;48.914;12.566;2022-09-03T04:25:31;2.20;;;1.17;;
37409;SDS011;23275;48.914;12.566;2022-09-03T04:27:57;3.42;;;0.95;;
37409;SDS011;23275;48.914;12.566;2022-09-03T04:30:23;3.10;;;1.27;;
37409;SDS011;23275;48.914;12.566;2022-09-03T04:32:49;2.88;;;1.10;;
37409;SDS011;23275;48.914;12.566;2022-09-03T04:35:21;9.07;;;1.10;;
37409;SDS011;23275;48.914;12.566;2022-09-03T04:37:48;2.33;;;1.38;;
37409;SDS011;23275;48.914;12.566;2022-09-03T04:40:13;3.85;;;1.50;;
37409;SDS011;23275;48.914;12.566;2022-09-03T04:42:39;3.28;;;1.38;;
37409;SDS011;23275;48.914;12.566;2022-09-03T04:45:05;1.83;;;1.20;;
37409;SDS011;23275;48.914;12.566;2022-09-03T04:47:31;1.90;;;1.13;;
37409;SDS011;23275;48.914;12.566;2022-09-03T04:49:57;2.33;;;1.52;;
37409;SDS011;23275;48.914;12.566;2022-09-03T04:52:22;3.83;;;1.40;;
37409;SDS011;23275;48.914;12.566;2022-09-03T04:54:48;2.88;;;1.27;;
37409;SDS011;23275;48.914;12.566;2022-09-03T04:57:14;3.67;;;1.73;;
37409;SDS011;23275;48.914;12.566;2022-09-03T04:59:39;2.75;;;1.33;;
37409;SDS011;23275;48.914;12.566;2022-09-03T05:02:06;2.50;;;1.30;;
37409;SDS011;23275;48.914;12.566;2022-09-03T05:04:33;3.95;;;1.50;;
37409;SDS011;23275;48.914;12.566;2022-09-03T05:06:59;3.22;;;1.73;;
37409;SDS011;23275;48.914;12.566;2022-09-03T05:09:25;2.45;;;1.40;;
37409;SDS011;23275;48.914;12.566;2022-09-03T05:11:50;2.72;;;1.42;;
37409;SDS011;23275;48.914;12.566;2022-09-03T05:14:16;3.88;;;1.60;;
37409;SDS011;23275;48.914;12.566;2022-09-03T05:16:41;3.28;;;1.50;;
37409;SDS011;23275;48.914;12.566;2022-09-03T05:19:07;3.00;;;1.75;;
37409;SDS011;23275;48.914;12.566;2022-09-03T05:21:33;4.72;;;1.77;;
37409;SDS011;23275;48.914;12.566;2022-09-03T05:24:00;2.50;;;1.70;;
37409;SDS011;23275;48.914;12.566;2022-09-03T05:26:27;3.00;;;1.67;;
37409;SDS011;23275;48.914;12.566;2022-09-03T05:28:56;3.22;;;1.80;;
37409;SDS011;23275;48.914;12.566;2022-09-03T05:31:24;4.90;;;1.58;;
37409;SDS011;23275;48.914;12.566;2022-09-03T05:33:56;3.10;;;1.70;;
37409;SDS011;23275;48.914;12.566;2022-09-03T05:36:24;2.78;;;1.40;;
37409;SDS011;23275;48.914;12.566;2022-09-03T05:38:51;2.40;;;1.67;;
37409;SDS011;23275;48.914;12.566;2022-09-03T05:41:18;2.92;;;1.30;;
37409;SDS011;23275;48.914;12.566;2022-09-03T05:43:46;2.58;;;1.23;;
37409;SDS011;23275;48.914;12.566;2022-09-03T05:46:20;2.08;;;1.25;;
37409;SDS011;23275;48.914;12.566;2022-09-03T05:48:55;3.67;;;1.42;;
37409;SDS011;23275;48.914;12.566;2022-09-03T05:51:24;2.78;;;1.50;;
37409;SDS011;23275;48.914;12.566;2022-09-03T05:53:50;2.60;;;1.00;;
37409;SDS011;23275;48.914;12.566;2022-09-03T05:56:18;4.13;;;1.02;;
37409;SDS011;23275;48.914;12.566;2022-09-03T05:58:48;2.78;;;0.98;;
37409;SDS011;23275;48.914;12.566;2022-09-03T06:01:20;3.22;;;1.10;;
37409;SDS011;23275;48.914;12.566;2022-09-03T06:03:57;2.35;;;0.80;;
37409;SDS011;23275;48.914;12.566;2022-09-03T06:06:23;6.10;;;1.98;;
37409;SDS011;23275;48.914;12.566;2022-09-03T06:08:54;2.75;;;1.30;;
37409;SDS011;23275;48.914;12.566;2022-09-03T06:11:22;3.15;;;1.42;;
37409;SDS011;23275;48.914;12.566;2022-09-03T06:13:50;5.43;;;1.38;;
37409;SDS011;23275;48.914;12.566;2022-09-03T06:16:16;1.83;;;0.80;;
37409;SDS011;23275;48.914;12.566;2022-09-03T06:18:41;3.20;;;0.85;;
37409;SDS011;23275;48.914;12.566;2022-09-03T06:21:07;4.78;;;1.00;;
37409;SDS011;23275;48.914;12.566;2022-09-03T06:23:33;7.30;;;0.80;;
37409;SDS011;23275;48.914;12.566;2022-09-03T06:26:03;2.92;;;1.20;;
37409;SDS011;23275;48.914;12.566;2022-09-03T06:28:33;3.63;;;1.13;;
37409;SDS011;23275;48.914;12.566;2022-09-03T06:31:00;2.58;;;0.82;;
37409;SDS011;23275;48.914;12.566;2022-09-03T06:33:28;2.42;;;1.20;;
37409;SDS011;23275;48.914;12.566;2022-09-03T06:35:55;2.35;;;1.00;;
37409;SDS011;23275;48.914;12.566;2022-09-03T06:38:22;2.35;;;0.93;;
37409;SDS011;23275;48.914;12.566;2022-09-03T06:40:55;2.35;;;1.08;;
37409;SDS011;23275;48.914;12.566;2022-09-03T06:43:25;1.98;;;0.88;;
37409;SDS011;23275;48.914;12.566;2022-09-03T06:45:55;2.42;;;1.00;;
37409;SDS011;23275;48.914;12.566;2022-09-03T06:48:22;4.55;;;1.00;;
37409;SDS011;23275;48.914;12.566;2022-09-03T06:53:28;3.72;;;0.90;;
37409;SDS011;23275;48.914;12.566;2022-09-03T06:55:56;2.25;;;0.80;;
37409;SDS011;23275;48.914;12.566;2022-09-03T06:58:24;2.58;;;0.88;;
37409;SDS011;23275;48.914;12.566;2022-09-03T07:00:59;2.40;;;1.00;;
37409;SDS011;23275;48.914;12.566;2022-09-03T07:03:30;2.65;;;1.00;;
37409;SDS011;23275;48.914;12.566;2022-09-03T07:06:39;2.15;;;0.70;;
37409;SDS011;23275;48.914;12.566;2022-09-03T07:08:46;2.25;;;1.00;;
37409;SDS011;23275;48.914;12.566;2022-09-03T07:11:12;3.22;;;0.90;;
37409;SDS011;23275;48.914;12.566;2022-09-03T07:13:43;5.55;;;1.08;;
37409;SDS011;23275;48.914;12.566;2022-09-03T07:16:16;5.20;;;0.82;;
37409;SDS011;23275;48.914;12.566;2022-09-03T07:18:47;3.88;;;1.65;;
37409;SDS011;23275;48.914;12.566;2022-09-03T07:21:14;2.35;;;0.95;;
37409;SDS011;23275;48.914;12.566;2022-09-03T07:23:41;3.50;;;1.00;;
37409;SDS011;23275;48.914;12.566;2022-09-03T07:26:11;3.55;;;1.00;;
37409;SDS011;23275;48.914;12.566;2022-09-03T07:28:42;2.22;;;0.98;;
37409;SDS011;23275;48.914;12.566;2022-09-03T07:31:14;2.83;;;0.95;;
37409;SDS011;23275;48.914;12.566;2022-09-03T07:33:43;2.05;;;0.90;;
37409;SDS011;23275;48.914;12.566;2022-09-03T07:36:11;1.85;;;0.93;;
37409;SDS011;23275;48.914;12.566;2022-09-03T07:38:39;2.55;;;0.88;;
37409;SDS011;23275;48.914;12.566;2022-09-03T07:41:06;1.90;;;0.70;;
37409;SDS011;23275;48.914;12.566;2022-09-03T07:43:43;3.25;;;1.20;;
37409;SDS011;23275;48.914;12.566;2022-09-03T07:46:19;3.97;;;1.10;;
37409;SDS011;23275;48.914;12.566;2022-09-03T07:48:50;2.08;;;1.10;;
37409;SDS011;23275;48.914;12.566;2022-09-03T07:51:21;2.38;;;1.00;;
37409;SDS011;23275;48.914;12.566;2022-09-03T07:53:50;3.07;;;0.80;;
37409;SDS011;23275;48.914;12.566;2022-09-03T07:56:17;3.03;;;1.00;;
37409;SDS011;23275;48.914;12.566;2022-09-03T07:58:43;4.13;;;0.77;;
37409;SDS011;23275;48.914;12.566;2022-09-03T08:01:10;3.30;;;1.00;;
37409;SDS011;23275;48.914;12.566;2022-09-03T08:03:38;2.85;;;1.00;;
37409;SDS011;23275;48.914;12.566;2022-09-03T08:06:14;2.80;;;1.10;;
37409;SDS011;23275;48.914;12.566;2022-09-03T08:08:42;1.48;;;0.80;;
37409;SDS011;23275;48.914;12.566;2022-09-03T08:11:10;3.22;;;1.20;;
37409;SDS011;23275;48.914;12.566;2022-09-03T08:13:38;2.50;;;0.80;;
37409;SDS011;23275;48.914;12.566;2022-09-03T08:16:05;3.10;;;1.17;;
37409;SDS011;23275;48.914;12.566;2022-09-03T08:18:32;2.80;;;1.48;;
37409;SDS011;23275;48.914;12.566;2022-09-03T08:21:02;4.03;;;0.82;;
37409;SDS011;23275;48.914;12.566;2022-09-03T08:23:29;3.75;;;1.35;;
37409;SDS011;23275;48.914;12.566;2022-09-03T08:25:58;2.42;;;1.00;;
37409;SDS011;23275;48.914;12.566;2022-09-03T08:28:24;4.32;;;0.90;;
37409;SDS011;23275;48.914;12.566;2022-09-03T08:30:50;4.40;;;1.23;;
37409;SDS011;23275;48.914;12.566;2022-09-03T08:33:15;4.35;;;1.00;;
37409;SDS011;23275;48.914;12.566;2022-09-03T08:36:00;2.88;;;0.90;;
37409;SDS011;23275;48.914;12.566;2022-09-03T08:38:31;5.20;;;1.13;;
37409;SDS011;23275;48.914;12.566;2022-09-03T08:41:04;3.92;;;1.30;;
37409;SDS011;23275;48.914;12.566;2022-09-03T08:43:31;2.08;;;0.90;;
37409;SDS011;23275;48.914;12.566;2022-09-03T08:46:15;3.42;;;0.90;;
37409;SDS011;23275;48.914;12.566;2022-09-03T08:48:41;5.13;;;1.00;;
37409;SDS011;23275;48.914;12.566;2022-09-03T08:51:06;2.65;;;0.90;;
37409;SDS011;23275;48.914;12.566;2022-09-03T08:53:39;4.03;;;1.23;;
37409;SDS011;23275;48.914;12.566;2022-09-03T08:56:11;2.35;;;0.90;;
37409;SDS011;23275;48.914;12.566;2022-09-03T08:58:44;3.38;;;0.80;;
37409;SDS011;23275;48.914;12.566;2022-09-03T09:07:10;3.95;;;0.98;;
37409;SDS011;23275;48.914;12.566;2022-09-03T09:09:45;2.60;;;0.90;;
37409;SDS011;23275;48.914;12.566;2022-09-03T09:12:41;8.98;;;1.10;;
37409;SDS011;23275;48.914;12.566;2022-09-03T09:15:49;2.95;;;0.90;;
37409;SDS011;23275;48.914;12.566;2022-09-03T09:21:07;3.08;;;1.02;;
37409;SDS011;23275;48.914;12.566;2022-09-03T09:23:47;2.13;;;0.93;;
37409;SDS011;23275;48.914;12.566;2022-09-03T09:26:18;2.53;;;0.85;;
37409;SDS011;23275;48.914;12.566;2022-09-03T09:28:58;2.30;;;0.98;;
37409;SDS011;23275;48.914;12.566;2022-09-03T09:31:34;3.33;;;0.82;;
37409;SDS011;23275;48.914;12.566;2022-09-03T09:34:05;1.88;;;0.82;;
37409;SDS011;23275;48.914;12.566;2022-09-03T09:36:54;4.10;;;0.80;;
37409;SDS011;23275;48.914;12.566;2022-09-03T09:39:19;1.60;;;0.70;;
37409;SDS011;23275;48.914;12.566;2022-09-03T09:44:47;4.07;;;0.73;;
37409;SDS011;23275;48.914;12.566;2022-09-03T09:47:24;3.40;;;0.70;;
37409;SDS011;23275;48.914;12.566;2022-09-03T09:49:55;5.28;;;0.70;;
37409;SDS011;23275;48.914;12.566;2022-09-03T09:52:23;1.75;;;0.80;;
37409;SDS011;23275;48.914;12.566;2022-09-03T09:54:52;2.55;;;0.75;;
37409;SDS011;23275;48.914;12.566;2022-09-03T09:57:31;3.42;;;0.75;;
37409;SDS011;23275;48.914;12.566;2022-09-03T10:00:06;1.52;;;0.50;;
37409;SDS011;23275;48.914;12.566;2022-09-03T10:02:36;2.60;;;0.80;;
37409;SDS011;23275;48.914;12.566;2022-09-03T10:05:14;2.67;;;1.17;;
37409;SDS011;23275;48.914;12.566;2022-09-03T10:08:22;2.67;;;0.95;;
37409;SDS011;23275;48.914;12.566;2022-09-03T10:10:49;2.90;;;1.08;;
37409;SDS011;23275;48.914;12.566;2022-09-03T10:13:20;2.75;;;1.10;;
37409;SDS011;23275;48.914;12.566;2022-09-03T10:18:31;3.20;;;0.90;;
37409;SDS011;23275;48.914;12.566;2022-09-03T10:26:21;2.90;;;0.68;;
37409;SDS011;23275;48.914;12.566;2022-09-03T10:29:04;3.78;;;0.80;;
37409;SDS011;23275;48.914;12.566;2022-09-03T10:34:21;2.97;;;1.10;;
37409;SDS011;23275;48.914;12.566;2022-09-03T10:42:41;1.95;;;0.90;;
37409;SDS011;23275;48.914;12.566;2022-09-03T10:50:33;3.90;;;0.88;;
37409;SDS011;23275;48.914;12.566;2022-09-03T10:56:44;3.45;;;0.70;;
37409;SDS011;23275;48.914;12.566;2022-09-03T11:05:04;2.20;;;0.70;;
37409;SDS011;23275;48.914;12.566;2022-09-03T11:10:56;1.92;;;0.90;;
37409;SDS011;23275;48.914;12.566;2022-09-03T11:13:32;5.03;;;1.13;;
37409;SDS011;23275;48.914;12.566;2022-09-03T11:16:05;4.07;;;1.08;;
37409;SDS011;23275;48.914;12.566;2022-09-03T11:18:37;2.58;;;0.82;;
37409;SDS011;23275;48.914;12.566;2022-09-03T11:21:09;3.03;;;0.80;;
37409;SDS011;23275;48.914;12.566;2022-09-03T11:23:42;3.00;;;1.00;;
37409;SDS011;23275;48.914;12.566;2022-09-03T11:26:12;2.75;;;0.77;;
37409;SDS011;23275;48.914;12.566;2022-09-03T11:36:22;2.90;;;1.00;;
37409;SDS011;23275;48.914;12.566;2022-09-03T11:38:54;3.30;;;0.90;;
37409;SDS011;23275;48.914;12.566;2022-09-03T11:41:24;2.17;;;0.90;;
37409;SDS011;23275;48.914;12.566;2022-09-03T11:44:17;3.50;;;0.90;;
37409;SDS011;23275;48.914;12.566;2022-09-03T11:46:56;1.77;;;0.80;;
37409;SDS011;23275;48.914;12.566;2022-09-03T11:49:29;4.22;;;1.10;;
37409;SDS011;23275;48.914;12.566;2022-09-03T11:52:01;1.90;;;0.75;;
37409;SDS011;23275;48.914;12.566;2022-09-03T11:54:30;1.35;;;0.88;;
37409;SDS011;23275;48.914;12.566;2022-09-03T11:57:31;4.07;;;0.93;;
37409;SDS011;23275;48.914;12.566;2022-09-03T11:59:53;2.38;;;1.05;;
37409;SDS011;23275;48.914;12.566;2022-09-03T12:02:31;3.33;;;0.88;;
37409;SDS011;23275;48.914;12.566;2022-09-03T12:18:32;9.57;;;2.50;;
37409;SDS011;23275;48.914;12.566;2022-09-03T12:21:03;2.65;;;0.70;;
37409;SDS011;23275;48.914;12.566;2022-09-03T12:23:48;2.60;;;0.73;;
37409;SDS011;23275;48.914;12.566;2022-09-03T12:26:17;1.83;;;0.95;;
37409;SDS011;23275;48.914;12.566;2022-09-03T12:28:54;3.03;;;1.20;;
37409;SDS011;23275;48.914;12.566;2022-09-03T12:36:36;2.35;;;0.80;;
37409;SDS011;23275;48.914;12.566;2022-09-03T12:39:12;3.72;;;1.20;;
37409;SDS011;23275;48.914;12.566;2022-09-03T12:44:24;6.97;;;1.17;;
37409;SDS011;23275;48.914;12.566;2022-09-03T12:47:12;5.68;;;1.17;;
37409;SDS011;23275;48.914;12.566;2022-09-03T12:49:48;5.35;;;1.10;;
37409;SDS011;23275;48.914;12.566;2022-09-03T12:52:20;2.25;;;0.75;;
37409;SDS011;23275;48.914;12.566;2022-09-03T12:54:57;2.30;;;0.93;;
37409;SDS011;23275;48.914;12.566;2022-09-03T12:57:29;3.13;;;0.80;;
37409;SDS011;23275;48.914;12.566;2022-09-03T13:00:24;2.65;;;0.90;;
37409;SDS011;23275;48.914;12.566;2022-09-03T13:05:35;4.00;;;0.98;;
37409;SDS011;23275;48.914;12.566;2022-09-03T13:08:09;2.20;;;0.90;;
37409;SDS011;23275;48.914;12.566;2022-09-03T13:10:41;3.10;;;1.27;;
37409;SDS011;23275;48.914;12.566;2022-09-03T13:16:11;3.53;;;1.40;;
37409;SDS011;23275;48.914;12.566;2022-09-03T13:21:27;18.23;;;1.30;;
37409;SDS011;23275;48.914;12.566;2022-09-03T13:31:49;6.00;;;1.33;;
37409;SDS011;23275;48.914;12.566;2022-09-03T13:34:24;3.08;;;1.00;;
37409;SDS011;23275;48.914;12.566;2022-09-03T13:39:36;2.65;;;1.00;;
37409;SDS011;23275;48.914;12.566;2022-09-03T13:42:08;2.03;;;0.90;;
37409;SDS011;23275;48.914;12.566;2022-09-03T13:44:55;4.10;;;1.10;;
37409;SDS011;23275;48.914;12.566;2022-09-03T13:47:35;2.63;;;0.85;;
37409;SDS011;23275;48.914;12.566;2022-09-03T13:50:43;4.38;;;0.90;;
37409;SDS011;23275;48.914;12.566;2022-09-03T13:53:27;2.47;;;0.88;;
37409;SDS011;23275;48.914;12.566;2022-09-03T13:55:59;4.03;;;0.90;;
37409;SDS011;23275;48.914;12.566;2022-09-03T13:58:51;3.00;;;0.80;;
37409;SDS011;23275;48.914;12.566;2022-09-03T14:01:26;5.95;;;1.13;;
37409;SDS011;23275;48.914;12.566;2022-09-03T14:04:10;3.03;;;0.80;;
37409;SDS011;23275;48.914;12.566;2022-09-03T14:06:58;1.92;;;0.82;;
37409;SDS011;23275;48.914;12.566;2022-09-03T14:14:55;1.95;;;0.98;;
37409;SDS011;23275;48.914;12.566;2022-09-03T14:25:50;2.35;;;1.00;;
37409;SDS011;23275;48.914;12.566;2022-09-03T14:28:36;4.18;;;1.10;;
37409;SDS011;23275;48.914;12.566;2022-09-03T14:34:04;2.00;;;1.00;;
37409;SDS011;23275;48.914;12.566;2022-09-03T14:36:34;2.10;;;0.90;;
37409;SDS011;23275;48.914;12.566;2022-09-03T14:41:50;3.25;;;1.00;;
37409;SDS011;23275;48.914;12.566;2022-09-03T14:58:14;2.03;;;0.80;;
37409;SDS011;23275;48.914;12.566;2022-09-03T15:01:05;3.88;;;0.90;;
37409;SDS011;23275;48.914;12.566;2022-09-03T15:03:51;2.17;;;1.05;;
37409;SDS011;23275;48.914;12.566;2022-09-03T15:09:30;3.03;;;1.40;;
37409;SDS011;23275;48.914;12.566;2022-09-03T15:12:02;4.72;;;1.40;;
37409;SDS011;23275;48.914;12.566;2022-09-03T15:14:45;5.22;;;1.30;;
37409;SDS011;23275;48.914;12.566;2022-09-03T15:30:57;2.47;;;1.00;;
37409;SDS011;23275;48.914;12.566;2022-09-03T15:34:11;4.03;;;1.10;;
37409;SDS011;23275;48.914;12.566;2022-09-03T15:36:53;5.03;;;2.63;;
37409;SDS011;23275;48.914;12.566;2022-09-03T15:39:23;5.72;;;3.40;;
37409;SDS011;23275;48.914;12.566;2022-09-03T15:41:55;4.27;;;1.70;;
37409;SDS011;23275;48.914;12.566;2022-09-03T15:44:34;2.30;;;1.10;;
37409;SDS011;23275;48.914;12.566;2022-09-03T15:47:08;2.15;;;1.10;;
37409;SDS011;23275;48.914;12.566;2022-09-03T15:52:40;3.45;;;1.00;;
37409;SDS011;23275;48.914;12.566;2022-09-03T15:55:34;2.42;;;1.00;;
37409;SDS011;23275;48.914;12.566;2022-09-03T16:03:12;4.75;;;0.90;;
37409;SDS011;23275;48.914;12.566;2022-09-03T16:05:41;3.30;;;1.00;;
37409;SDS011;23275;48.914;12.566;2022-09-03T16:08:16;2.28;;;0.95;;
37409;SDS011;23275;48.914;12.566;2022-09-03T16:16:03;2.50;;;1.08;;
37409;SDS011;23275;48.914;12.566;2022-09-03T16:18:37;3.10;;;1.10;;
37409;SDS011;23275;48.914;12.566;2022-09-03T16:21:12;3.83;;;1.08;;
37409;SDS011;23275;48.914;12.566;2022-09-03T16:23:56;3.67;;;0.98;;
37409;SDS011;23275;48.914;12.566;2022-09-03T16:26:53;2.38;;;1.20;;
37409;SDS011;23275;48.914;12.566;2022-09-03T16:29:25;4.32;;;1.15;;
37409;SDS011;23275;48.914;12.566;2022-09-03T16:37:37;4.30;;;1.30;;
37409;SDS011;23275;48.914;12.566;2022-09-03T16:51:21;3.08;;;1.20;;
37409;SDS011;23275;48.914;12.566;2022-09-03T16:56:43;3.25;;;1.10;;
37409;SDS011;23275;48.914;12.566;2022-09-03T17:02:49;3.78;;;1.20;;
37409;SDS011;23275;48.914;12.566;2022-09-03T17:11:17;4.45;;;1.50;;
37409;SDS011;23275;48.914;12.566;2022-09-03T17:13:56;4.13;;;1.30;;
37409;SDS011;23275;48.914;12.566;2022-09-03T17:16:42;4.00;;;1.50;;
37409;SDS011;23275;48.914;12.566;2022-09-03T17:19:16;3.85;;;1.10;;
37409;SDS011;23275;48.914;12.566;2022-09-03T17:22:06;2.95;;;1.20;;
37409;SDS011;23275;48.914;12.566;2022-09-03T17:24:54;5.25;;;1.85;;
37409;SDS011;23275;48.914;12.566;2022-09-03T17:30:18;3.65;;;1.65;;
37409;SDS011;23275;48.914;12.566;2022-09-03T17:41:20;3.33;;;1.70;;
37409;SDS011;23275;48.914;12.566;2022-09-03T17:44:21;3.60;;;1.40;;
37409;SDS011;23275;48.914;12.566;2022-09-03T17:49:22;3.15;;;1.23;;
37409;SDS011;23275;48.914;12.566;2022-09-03T17:54:33;4.68;;;1.20;;
37409;SDS011;23275;48.914;12.566;2022-09-03T18:00:06;1.90;;;1.10;;
37409;SDS011;23275;48.914;12.566;2022-09-03T18:02:57;3.55;;;1.35;;
37409;SDS011;23275;48.914;12.566;2022-09-03T18:11:36;3.80;;;1.40;;
37409;SDS011;23275;48.914;12.566;2022-09-03T18:14:33;3.30;;;1.02;;
37409;SDS011;23275;48.914;12.566;2022-09-03T18:17:09;3.80;;;1.20;;
37409;SDS011;23275;48.914;12.566;2022-09-03T18:22:43;2.83;;;1.45;;
37409;SDS011;23275;48.914;12.566;2022-09-03T18:25:44;2.47;;;1.13;;
37409;SDS011;23275;48.914;12.566;2022-09-03T18:28:45;3.70;;;1.35;;
37409;SDS011;23275;48.914;12.566;2022-09-03T18:31:45;3.83;;;1.45;;
37409;SDS011;23275;48.914;12.566;2022-09-03T18:34:30;4.05;;;1.67;;
37409;SDS011;23275;48.914;12.566;2022-09-03T18:37:20;3.67;;;1.70;;
37409;SDS011;23275;48.914;12.566;2022-09-03T18:49:04;3.95;;;1.65;;
37409;SDS011;23275;48.914;12.566;2022-09-03T18:52:04;4.00;;;1.80;;
37409;SDS011;23275;48.914;12.566;2022-09-03T18:57:50;3.33;;;1.85;;
37409;SDS011;23275;48.914;12.566;2022-09-03T19:00:50;2.50;;;1.38;;
37409;SDS011;23275;48.914;12.566;2022-09-03T19:04:08;3.35;;;1.60;;
37409;SDS011;23275;48.914;12.566;2022-09-03T19:07:07;6.78;;;1.65;;
37409;SDS011;23275;48.914;12.566;2022-09-03T19:16:04;4.70;;;2.00;;
37409;SDS011;23275;48.914;12.566;2022-09-03T19:22:11;4.75;;;2.38;;
37409;SDS011;23275;48.914;12.566;2022-09-03T19:25:10;6.05;;;1.88;;
37409;SDS011;23275;48.914;12.566;2022-09-03T19:34:16;4.18;;;1.92;;
37409;SDS011;23275;48.914;12.566;2022-09-03T19:37:34;6.07;;;2.08;;
37409;SDS011;23275;48.914;12.566;2022-09-03T19:43:51;3.47;;;2.15;;
37409;SDS011;23275;48.914;12.566;2022-09-03T19:46:55;4.05;;;2.60;;
37409;SDS011;23275;48.914;12.566;2022-09-03T19:53:00;4.47;;;2.58;;
37409;SDS011;23275;48.914;12.566;2022-09-03T19:55:57;4.15;;;2.38;;
37409;SDS011;23275;48.914;12.566;2022-09-03T19:58:53;4.95;;;2.20;;
37409;SDS011;23275;48.914;12.566;2022-09-03T20:01:40;2.90;;;2.13;;
37409;SDS011;23275;48.914;12.566;2022-09-03T20:04:30;4.07;;;2.45;;
37409;SDS011;23275;48.914;12.566;2022-09-03T20:07:16;5.07;;;2.47;;
37409;SDS011;23275;48.914;12.566;2022-09-03T20:10:03;3.90;;;2.30;;
37409;SDS011;23275;48.914;12.566;2022-09-03T20:13:11;3.85;;;2.10;;
37409;SDS011;23275;48.914;12.566;2022-09-03T20:21:18;3.05;;;2.17;;
37409;SDS011;23275;48.914;12.566;2022-09-03T20:26:51;4.30;;;1.92;;
37409;SDS011;23275;48.914;12.566;2022-09-03T20:29:36;3.13;;;1.90;;